»·PEaware :: DAL840 KSFO-KSFO

DAL840 :: KSFO-KSFO

FLIGHT INFORMATION

Flight Status: Arrived
Operator:
Delta Air Lines
More flights by this operator :: More flights under this callsign
Pilot: Daniel C. (12704)
Aircraft: AIRBUS A319
(A319)
More flights by this aircraft type
Origin: KSFO San Francisco Intl
United States
Destination: KSFO San Francisco Intl
United States
More flights between these airports :: More routes between these airports
Route: +OSI+
File this flight plan on PilotEdge
Remarks: Looking to do ILS laps. Will hold at STOKD until the network closes to minimize controller inconvenience.
Altitude:
(Current/Filed)
190ft
Speed:
(Current/Filed)
450kts
Departed: 07-Dec-20 10:04 PM
Arrived: 07-Dec-20 11:30 PM
Distance/Time
Traveled:
1nm/1:26
Distance/Time
To Go:
Arrived

Flight Plot

Page will automatically refresh every two minutes.

Flight plan parsing failed; only flown route is shown


Map Options




Map Legend


Flown Route
Filed Route
Departure Airport
Arrival Airport
Navaid (VOR, NDB)
Fix

Horizontal Profiles

Position Reports

Time Latitude Longitude Heading Altitude Ground
Speed
07-Dec-20 21:29 37.614611 -122.383166 26 27ft 0kts
07-Dec-20 21:30 37.614611 -122.383166 26 27ft 0kts
07-Dec-20 21:31 37.614611 -122.383166 26 27ft 0kts
07-Dec-20 21:32 37.614611 -122.383166 26 27ft 0kts
07-Dec-20 21:33 37.614611 -122.383166 26 27ft 0kts
07-Dec-20 21:34 37.614611 -122.383166 26 27ft 0kts
07-Dec-20 21:35 37.614611 -122.383166 26 27ft 0kts
07-Dec-20 21:36 37.614611 -122.383166 26 27ft 0kts
07-Dec-20 21:37 37.614611 -122.383166 26 27ft 0kts
07-Dec-20 21:38 37.614611 -122.383166 26 27ft 0kts
07-Dec-20 21:39 37.614611 -122.383166 26 27ft 0kts
07-Dec-20 21:40 37.614611 -122.383166 26 27ft 0kts
07-Dec-20 21:41 37.614611 -122.383166 26 27ft 0kts
07-Dec-20 21:42 37.614611 -122.383166 26 27ft 0kts
07-Dec-20 21:43 37.614611 -122.383166 26 27ft 0kts
07-Dec-20 21:44 37.614611 -122.383166 26 27ft 0kts
07-Dec-20 21:45 37.614611 -122.383166 26 27ft 0kts
07-Dec-20 21:46 37.614086 -122.383679 105 27ft 2kts
07-Dec-20 21:47 37.614099 -122.383735 116 27ft 0kts
07-Dec-20 21:48 37.614099 -122.383735 116 27ft 0kts
07-Dec-20 21:49 37.614099 -122.383735 116 27ft 0kts
07-Dec-20 21:50 37.614098 -122.383734 116 27ft 0kts
07-Dec-20 21:51 37.614098 -122.383733 116 27ft 0kts
07-Dec-20 21:52 37.614093 -122.383720 116 27ft 0kts
07-Dec-20 21:53 37.613499 -122.382234 117 27ft 0kts
07-Dec-20 21:54 37.613499 -122.382234 117 27ft 0kts
07-Dec-20 21:55 37.613456 -122.382130 117 27ft 2kts
07-Dec-20 21:56 37.612393 -122.382393 217 27ft 8kts
07-Dec-20 21:57 37.609717 -122.384401 218 27ft 14kts
07-Dec-20 21:58 37.608333 -122.383510 118 27ft 0kts
07-Dec-20 21:59 37.608333 -122.383510 118 27ft 0kts
07-Dec-20 22:00 37.608333 -122.383509 118 27ft 0kts
07-Dec-20 22:01 37.608332 -122.383508 118 27ft 0kts
07-Dec-20 22:02 37.608133 -122.382945 94 27ft 6kts
07-Dec-20 22:03 37.619711 -122.374733 29 335ft 130kts
07-Dec-20 22:04 37.657599 -122.348242 28 2097ft 191kts
07-Dec-20 22:05 37.714569 -122.351359 313 4712ft 261kts
07-Dec-20 22:06 37.711215 -122.435602 221 5015ft 273kts
07-Dec-20 22:07 37.642527 -122.477127 203 5009ft 274kts
07-Dec-20 22:08 37.571856 -122.514222 203 5007ft 275kts
07-Dec-20 22:09 37.500805 -122.551386 203 5009ft 276kts
07-Dec-20 22:10 37.431231 -122.538703 126 5015ft 275kts
07-Dec-20 22:11 37.404858 -122.450696 92 5018ft 270kts
07-Dec-20 22:12 37.398323 -122.356292 94 5013ft 266kts
07-Dec-20 22:13 37.391746 -122.273552 97 5009ft 226kts
07-Dec-20 22:14 37.343417 -122.256303 235 5014ft 228kts
07-Dec-20 22:15 37.343805 -122.331881 278 5025ft 222kts
07-Dec-20 22:16 37.351152 -122.409149 283 5015ft 221kts
07-Dec-20 22:17 37.397697 -122.426957 43 5016ft 220kts
07-Dec-20 22:18 37.398929 -122.351588 95 5024ft 226kts
07-Dec-20 22:19 37.390793 -122.273257 107 5009ft 227kts
07-Dec-20 22:20 37.340861 -122.267344 246 5019ft 226kts
07-Dec-20 22:21 37.345100 -122.343800 278 5025ft 222kts
07-Dec-20 22:22 37.354257 -122.420075 300 5000ft 219kts
07-Dec-20 22:23 37.403149 -122.416463 67 5015ft 221kts
07-Dec-20 22:24 37.397777 -122.339017 94 5023ft 225kts
07-Dec-20 22:25 37.386288 -122.262062 128 4998ft 229kts
07-Dec-20 22:26 37.338297 -122.278941 266 5024ft 223kts
07-Dec-20 22:27 37.346333 -122.355649 277 5022ft 221kts
07-Dec-20 22:28 37.360072 -122.429155 321 4998ft 216kts
07-Dec-20 22:29 37.405316 -122.404767 86 5017ft 223kts
07-Dec-20 22:30 37.396839 -122.326958 93 5021ft 225kts
07-Dec-20 22:31 37.379054 -122.254168 149 4999ft 230kts
07-Dec-20 22:32 37.338660 -122.291012 279 5035ft 221kts
07-Dec-20 22:33 37.347497 -122.367347 277 5021ft 221kts
07-Dec-20 22:34 37.368557 -122.434259 343 5007ft 215kts
07-Dec-20 22:35 37.404610 -122.391630 97 5032ft 224kts
07-Dec-20 22:36 37.395711 -122.313904 94 5018ft 224kts
07-Dec-20 22:37 37.368902 -122.249819 173 5004ft 230kts
07-Dec-20 22:38 37.340624 -122.303893 282 5039ft 220kts
07-Dec-20 22:39 37.348888 -122.380367 278 5019ft 220kts
07-Dec-20 22:40 37.378790 -122.435685 3 5014ft 214kts
07-Dec-20 22:41 37.402564 -122.377973 99 5033ft 224kts
07-Dec-20 22:42 37.394419 -122.300413 95 5018ft 224kts
07-Dec-20 22:43 37.358179 -122.250697 197 5010ft 229kts
07-Dec-20 22:44 37.342868 -122.317193 282 5035ft 220kts
07-Dec-20 22:45 37.350525 -122.393320 279 5018ft 220kts
07-Dec-20 22:46 37.389093 -122.432699 21 5018ft 215kts
07-Dec-20 22:47 37.400510 -122.364415 98 5029ft 224kts
07-Dec-20 22:48 37.393021 -122.286709 96 5017ft 223kts
07-Dec-20 22:49 37.348316 -122.257426 223 5014ft 227kts
07-Dec-20 22:50 37.344791 -122.330371 279 5028ft 219kts
07-Dec-20 22:51 37.352172 -122.406704 282 5015ft 219kts
07-Dec-20 22:52 37.397953 -122.425157 45 5014ft 216kts
07-Dec-20 22:53 37.398771 -122.350319 95 5025ft 223kts
07-Dec-20 22:54 37.390825 -122.273088 108 5009ft 223kts
07-Dec-20 22:55 37.341752 -122.268639 248 5017ft 223kts
07-Dec-20 22:56 37.346407 -122.344192 277 5025ft 219kts
07-Dec-20 22:57 37.355876 -122.419601 302 5000ft 216kts
07-Dec-20 22:58 37.403822 -122.412833 69 5014ft 219kts
07-Dec-20 22:59 37.397496 -122.335985 94 5022ft 222kts
07-Dec-20 23:00 37.389666 -122.257188 96 5029ft 254kts
07-Dec-20 23:01 37.383802 -122.164216 69 4997ft 267kts
07-Dec-20 23:02 37.445095 -122.141593 341 5024ft 263kts
07-Dec-20 23:03 37.505653 -122.163977 344 4963ft 192kts
07-Dec-20 23:05 37.547235 -122.204382 299 2460ft 193kts
07-Dec-20 23:06 37.567260 -122.252449 301 1909ft 138kts
07-Dec-20 23:07 37.585421 -122.295666 297 1162ft 142kts
07-Dec-20 23:08 37.603865 -122.339589 298 408ft 141kts
07-Dec-20 23:09 37.621882 -122.382277 298 639ft 137kts
07-Dec-20 23:10 37.642420 -122.449512 292 1780ft 310kts
07-Dec-20 23:11 37.671037 -122.534238 295 2833ft 207kts
07-Dec-20 23:12 37.689657 -122.602041 268 3981ft 210kts
07-Dec-20 23:13 37.643729 -122.629626 144 4004ft 221kts
07-Dec-20 23:14 37.603081 -122.572436 131 4003ft 218kts
07-Dec-20 23:15 37.562187 -122.515843 130 3998ft 218kts
07-Dec-20 23:16 37.521429 -122.459383 130 3985ft 218kts
07-Dec-20 23:17 37.480576 -122.402886 130 3994ft 218kts
07-Dec-20 23:18 37.439961 -122.346065 122 4007ft 217kts
07-Dec-20 23:19 37.419691 -122.277010 108 3574ft 211kts
07-Dec-20 23:20 37.398394 -122.202820 106 2452ft 260kts
07-Dec-20 23:21 37.398602 -122.124899 27 1825ft 200kts
07-Dec-20 23:22 37.439617 -122.139196 336 1729ft 136kts
07-Dec-20 23:22 37.469185 -122.151535 345 1710ft 134kts
07-Dec-20 23:24 37.511349 -122.166042 345 1692ft 131kts
07-Dec-20 23:24 37.540147 -122.185927 294 1703ft 156kts
07-Dec-20 23:26 37.560878 -122.237240 301 1707ft 137kts
07-Dec-20 23:26 37.575811 -122.272770 300 1542ft 137kts
07-Dec-20 23:27 37.593944 -122.315953 297 817ft 138kts
07-Dec-20 23:28 37.610595 -122.355621 297 130ft 126kts
07-Dec-20 23:29 37.621592 -122.381909 293 27ft 28kts
07-Dec-20 23:30 37.619802 -122.382382 118 27ft 12kts
07-Dec-20 23:31 37.616438 -122.379794 204 27ft 18kts
07-Dec-20 23:32 37.612099 -122.383452 257 27ft 15kts

Navigation Log

Ident Type
Flight plan parsing failed, navigation log unavailable